INFORMACIÓN METAR y TAF
METAR FOR LEBZ
ADDS - METARS form results

(0823 UTC 26 January 2020)
Data provider http://aviationweather.gov/metar/data/
 
METAR text: LEBZ 260820Z 22004KT 0600 R31/1900D R13/1400N FG VV001 06/06 Q1024
Conditions at: LEBZ (TALAVERA AB/BADA, ES) observed 0820 UTC 26 January 2020
Temperature: 6.0°C (43°F)
Dewpoint: 6.0°C (43°F) [RH = 100%]
Pressure (altimeter): 30.24 inches Hg (1024.0 mb)
Winds: from the SW (220 degrees) at 5 MPH (4 knots; 2.1 m/s)
Visibility: 0.37 miles (0.60 km)
Ceiling: indefinite ceiling with vertical visibility of 100 feet AGL
Clouds: obscured sky
Weather: FG  (fog)

METAR text: LEBZ 260811Z 25004KT 210V320 1800 0800NW BR PRFG OVC002 06/06 Q1024
Conditions at: LEBZ (TALAVERA AB/BADA, ES) observed 0811 UTC 26 January 2020
Temperature: 6.0°C (43°F)
Dewpoint: 6.0°C (43°F) [RH = 100%]
Pressure (altimeter): 30.24 inches Hg (1024.0 mb)
Winds: from the WSW (250 degrees) at 5 MPH (4 knots; 2.1 m/s)
Visibility: 1.12 miles (1.80 km)
Ceiling: 200 feet AGL
Clouds: overcast cloud deck at 200 feet AGL
Weather: PRFG BR  (partial fog, mist)

METAR text: LEBZ 260800Z 29004KT 250V320 4800 BR OVC002 06/06 Q1024
Conditions at: LEBZ (TALAVERA AB/BADA, ES) observed 0800 UTC 26 January 2020
Temperature: 6.0°C (43°F)
Dewpoint: 6.0°C (43°F) [RH = 100%]
Pressure (altimeter): 30.24 inches Hg (1024.0 mb)
Winds: from the WNW (290 degrees) at 5 MPH (4 knots; 2.1 m/s)
Visibility: 2.98 miles (4.80 km)
Ceiling: 200 feet AGL
Clouds: overcast cloud deck at 200 feet AGL
Weather: BR  (mist)

Forecast for: AMD
Text: TAF AMD LEBZ 260631Z 2606/2706 32004KT 9999 SCT035 TX15/2614Z TN05/2706Z
Forecast period: 0600 UTC 26 January 2020 to 0600 UTC 27 January 2020
Forecast type: FROM: standard forecast or significant change
Winds: from the NW (320 degrees) at 5 MPH (4 knots; 2.1 m/s)
Visibility: 6 or more miles 10+ km)
Ceiling: at least 12,000 feet AGL
Clouds: scattered clouds at 3500 feet AGL
Weather: no significant weather forecast for this period
Text: TEMPO 2606/2611 3000 BR BKN006
Forecast period: 0600 to 1100 UTC 26 January 2020
Forecast type: TEMPORARY: The following changes expected for less than half the time period
Visibility: 1.86 miles (2.99 km)
Ceiling: 600 feet AGL
Clouds: broken clouds at 600 feet AGL
Weather: BR  (mist)
Text: PROB40
Forecast period: 0600 to 1000 UTC 26 January 2020
Forecast type: TEMPORARY: The following changes expected for less than half the time period
Visibility: 0.50 miles (0.80 km)
Ceiling: unknown
Clouds: missing
Weather: FG  (fog)
Text: TEMPO 2606/2610 0800 FG
Forecast period: 0300 to 0600 UTC 27 January 2020
Forecast type: TEMPORARY: The following changes expected for less than half the time period
Visibility: 1.86 miles (2.99 km)
Ceiling: unknown
Clouds: missing
Weather: BR  (mist)
Text: TEMPO 2703/2706 3000 BR
Forecast period: 0300 to 0600 UTC 27 January 2020
Forecast type: TEMPORARY: The following changes expected for less than half the time period
Visibility: 0.37 miles (0.60 km)
Ceiling: unknown
Clouds: missing
Weather: FG  (fog)

 MAPA DE AEROPUERTO

 INFORMACIÓN DE PISTA
Pista 13 Longitud 9350 ft Ancho 197 ft
Elevación 579 ft Umbral desplazado 0 ft Rumbo de pista 126
Pista 31 Longitud 9350 ft Ancho 197 ft
Elevación 609 ft Umbral desplazado 0 ft Rumbo de pista 306

 FRECUANCIAS DEL AEROPUERTO
Tipo APP Nombre APP Frecuencia 139.3 MHZ
Tipo TWR Nombre BADAJOZ TW Frecuencia 122.1 MHZ

 RADIO AYUDAS DEL AEROPUERTO
Tipo NDB Nombre Badajoz Frecuencia 298 KHZ
Tipo TACAN Nombre Talavera Frecuencia 108800 KHZ
Tipo VOR-DME Nombre Badajoz Frecuencia 116800 KHZ




Powered by Virtual Airlines Manager